Nueva Esperanza, Argentina
Current Conditions -  °F | °C
As of 1:00 AM on Saturday 25 Oct 2014 (Local Time) from SANT Reporting Station
Clear Clear  
Wind Chill: 75°   Ceiling: Unl
Heat Index: 75°   Visibility: 6mi
Dew Point: 57°   Wind: 9mph
Humidity: 53%   Direction: 320°NW
Pressure: 29.91"   Gusts: NA
Location:  26.2°S, 64.27°W
Report Text: SANT 250400Z 32008KT CAVOK 24/14 Q1013
Loading
Personal Weather Stations






























Interactive Weather Map
Tropical Storm Tracking
New forecast layout! Learn more

10-Day Weather Forecast

Advertisements
Track Severe Weather on mobile